sensor_id;sensor_type;location;lat;lon;timestamp;temperature;humidity
1453;DHT22;720;47.738;7.998;2023-05-16T00:01:48;10.70;99.90
1453;DHT22;720;47.738;7.998;2023-05-16T00:04:14;10.70;99.90
1453;DHT22;720;47.738;7.998;2023-05-16T00:06:40;10.70;99.90
1453;DHT22;720;47.738;7.998;2023-05-16T00:09:06;10.70;99.90
1453;DHT22;720;47.738;7.998;2023-05-16T00:11:32;10.70;99.90
1453;DHT22;720;47.738;7.998;2023-05-16T00:13:57;10.70;99.90
1453;DHT22;720;47.738;7.998;2023-05-16T00:16:23;10.70;99.90
1453;DHT22;720;47.738;7.998;2023-05-16T00:18:50;10.60;99.90
1453;DHT22;720;47.738;7.998;2023-05-16T00:21:17;10.60;99.90
1453;DHT22;720;47.738;7.998;2023-05-16T00:23:43;10.60;99.90
1453;DHT22;720;47.738;7.998;2023-05-16T00:26:08;10.60;99.90
1453;DHT22;720;47.738;7.998;2023-05-16T00:28:34;10.60;99.90
1453;DHT22;720;47.738;7.998;2023-05-16T00:31:00;10.50;99.90
1453;DHT22;720;47.738;7.998;2023-05-16T00:33:26;10.40;99.90
1453;DHT22;720;47.738;7.998;2023-05-16T00:35:51;10.30;99.90
1453;DHT22;720;47.738;7.998;2023-05-16T00:38:18;10.20;99.90
1453;DHT22;720;47.738;7.998;2023-05-16T00:40:44;10.20;99.90
1453;DHT22;720;47.738;7.998;2023-05-16T00:43:09;10.20;99.90
1453;DHT22;720;47.738;7.998;2023-05-16T00:45:35;10.20;99.90
1453;DHT22;720;47.738;7.998;2023-05-16T00:48:00;10.20;99.90
1453;DHT22;720;47.738;7.998;2023-05-16T00:50:26;10.20;99.90
1453;DHT22;720;47.738;7.998;2023-05-16T00:52:52;10.20;99.90
1453;DHT22;720;47.738;7.998;2023-05-16T00:55:17;10.10;99.90
1453;DHT22;720;47.738;7.998;2023-05-16T00:57:43;10.10;99.90
1453;DHT22;720;47.738;7.998;2023-05-16T01:00:09;10.00;99.90
1453;DHT22;720;47.738;7.998;2023-05-16T01:02:36;9.90;99.90
1453;DHT22;720;47.738;7.998;2023-05-16T01:05:02;9.90;99.90
1453;DHT22;720;47.738;7.998;2023-05-16T01:07:30;9.90;99.90
1453;DHT22;720;47.738;7.998;2023-05-16T01:09:56;9.80;99.90
1453;DHT22;720;47.738;7.998;2023-05-16T01:12:40;9.70;99.90
1453;DHT22;720;47.738;7.998;2023-05-16T01:15:11;9.60;99.90
1453;DHT22;720;47.738;7.998;2023-05-16T01:22:51;9.40;99.90
1453;DHT22;720;47.738;7.998;2023-05-16T01:28:08;9.40;99.90
1453;DHT22;720;47.738;7.998;2023-05-16T01:30:39;9.50;99.90
1453;DHT22;720;47.738;7.998;2023-05-16T01:33:05;9.60;99.90
1453;DHT22;720;47.738;7.998;2023-05-16T01:35:32;9.40;99.90
1453;DHT22;720;47.738;7.998;2023-05-16T01:38:03;9.50;99.90
1453;DHT22;720;47.738;7.998;2023-05-16T01:40:59;9.40;99.90
1453;DHT22;720;47.738;7.998;2023-05-16T01:43:34;9.30;99.90
1453;DHT22;720;47.738;7.998;2023-05-16T01:46:20;9.40;99.90
1453;DHT22;720;47.738;7.998;2023-05-16T01:48:53;9.40;99.90
1453;DHT22;720;47.738;7.998;2023-05-16T01:51:24;9.40;99.90
1453;DHT22;720;47.738;7.998;2023-05-16T01:53:57;9.40;99.90
1453;DHT22;720;47.738;7.998;2023-05-16T01:56:26;9.40;99.90
1453;DHT22;720;47.738;7.998;2023-05-16T01:58:52;9.50;99.90
1453;DHT22;720;47.738;7.998;2023-05-16T02:01:18;9.50;99.90
1453;DHT22;720;47.738;7.998;2023-05-16T02:03:44;9.50;99.90
1453;DHT22;720;47.738;7.998;2023-05-16T02:06:10;9.50;99.90
1453;DHT22;720;47.738;7.998;2023-05-16T02:08:35;9.40;99.90
1453;DHT22;720;47.738;7.998;2023-05-16T02:11:01;9.40;99.90
1453;DHT22;720;47.738;7.998;2023-05-16T02:13:27;9.40;99.90
1453;DHT22;720;47.738;7.998;2023-05-16T02:15:52;9.50;99.90
1453;DHT22;720;47.738;7.998;2023-05-16T02:18:18;9.50;99.90
1453;DHT22;720;47.738;7.998;2023-05-16T02:20:44;9.50;99.90
1453;DHT22;720;47.738;7.998;2023-05-16T02:23:10;9.40;99.90
1453;DHT22;720;47.738;7.998;2023-05-16T02:25:35;9.40;99.90
1453;DHT22;720;47.738;7.998;2023-05-16T02:28:01;9.40;99.90
1453;DHT22;720;47.738;7.998;2023-05-16T02:30:26;9.60;99.90
1453;DHT22;720;47.738;7.998;2023-05-16T02:32:52;9.60;99.90
1453;DHT22;720;47.738;7.998;2023-05-16T02:35:18;9.70;99.90
1453;DHT22;720;47.738;7.998;2023-05-16T02:37:44;9.70;99.90
1453;DHT22;720;47.738;7.998;2023-05-16T02:40:11;9.60;99.90
1453;DHT22;720;47.738;7.998;2023-05-16T02:42:37;9.70;99.90
1453;DHT22;720;47.738;7.998;2023-05-16T02:45:03;9.70;99.90
1453;DHT22;720;47.738;7.998;2023-05-16T02:47:28;9.70;99.90
1453;DHT22;720;47.738;7.998;2023-05-16T02:49:54;9.70;99.90
1453;DHT22;720;47.738;7.998;2023-05-16T02:52:20;9.70;99.90
1453;DHT22;720;47.738;7.998;2023-05-16T02:54:46;9.70;99.90
1453;DHT22;720;47.738;7.998;2023-05-16T02:57:12;9.80;99.90
1453;DHT22;720;47.738;7.998;2023-05-16T02:59:37;9.90;99.90
1453;DHT22;720;47.738;7.998;2023-05-16T03:02:03;9.90;99.90
1453;DHT22;720;47.738;7.998;2023-05-16T03:04:29;10.00;99.90
1453;DHT22;720;47.738;7.998;2023-05-16T03:06:54;10.00;99.90
1453;DHT22;720;47.738;7.998;2023-05-16T03:09:20;10.10;99.90
1453;DHT22;720;47.738;7.998;2023-05-16T03:11:46;10.10;99.90
1453;DHT22;720;47.738;7.998;2023-05-16T03:14:12;10.10;99.90
1453;DHT22;720;47.738;7.998;2023-05-16T03:16:38;10.10;99.90
1453;DHT22;720;47.738;7.998;2023-05-16T03:19:05;10.10;99.90
1453;DHT22;720;47.738;7.998;2023-05-16T03:21:31;10.10;99.90
1453;DHT22;720;47.738;7.998;2023-05-16T03:23:57;10.10;99.90
1453;DHT22;720;47.738;7.998;2023-05-16T03:26:25;10.10;99.90
1453;DHT22;720;47.738;7.998;2023-05-16T03:28:50;10.20;99.90
1453;DHT22;720;47.738;7.998;2023-05-16T03:31:16;10.20;99.90
1453;DHT22;720;47.738;7.998;2023-05-16T03:33:42;10.20;99.90
1453;DHT22;720;47.738;7.998;2023-05-16T03:36:08;10.20;99.90
1453;DHT22;720;47.738;7.998;2023-05-16T03:38:35;10.30;99.90
1453;DHT22;720;47.738;7.998;2023-05-16T03:41:01;10.30;99.90
1453;DHT22;720;47.738;7.998;2023-05-16T03:43:26;10.20;99.90
1453;DHT22;720;47.738;7.998;2023-05-16T03:45:52;10.20;99.90
1453;DHT22;720;47.738;7.998;2023-05-16T03:48:18;10.20;99.90
1453;DHT22;720;47.738;7.998;2023-05-16T03:50:43;10.30;99.90
1453;DHT22;720;47.738;7.998;2023-05-16T03:53:10;10.30;99.90
1453;DHT22;720;47.738;7.998;2023-05-16T03:55:36;10.30;99.90
1453;DHT22;720;47.738;7.998;2023-05-16T03:58:02;10.30;99.90
1453;DHT22;720;47.738;7.998;2023-05-16T04:00:28;10.30;99.90
1453;DHT22;720;47.738;7.998;2023-05-16T04:02:53;10.30;99.90
1453;DHT22;720;47.738;7.998;2023-05-16T04:05:19;10.40;99.90
1453;DHT22;720;47.738;7.998;2023-05-16T04:07:45;10.40;99.90
1453;DHT22;720;47.738;7.998;2023-05-16T04:10:11;10.40;99.90
1453;DHT22;720;47.738;7.998;2023-05-16T04:12:37;10.40;99.90
1453;DHT22;720;47.738;7.998;2023-05-16T04:15:03;10.40;99.90
1453;DHT22;720;47.738;7.998;2023-05-16T04:17:29;10.40;99.90
1453;DHT22;720;47.738;7.998;2023-05-16T04:19:55;10.50;99.90
1453;DHT22;720;47.738;7.998;2023-05-16T04:22:21;10.50;99.90
1453;DHT22;720;47.738;7.998;2023-05-16T04:24:47;10.60;99.90
1453;DHT22;720;47.738;7.998;2023-05-16T04:27:13;10.60;99.90
1453;DHT22;720;47.738;7.998;2023-05-16T04:29:39;10.60;99.90
1453;DHT22;720;47.738;7.998;2023-05-16T04:32:05;10.70;99.90
1453;DHT22;720;47.738;7.998;2023-05-16T04:34:32;10.80;99.90
1453;DHT22;720;47.738;7.998;2023-05-16T04:36:58;10.90;99.90
1453;DHT22;720;47.738;7.998;2023-05-16T04:39:24;11.00;99.90
1453;DHT22;720;47.738;7.998;2023-05-16T04:41:50;11.10;99.90
1453;DHT22;720;47.738;7.998;2023-05-16T04:44:16;11.10;99.90
1453;DHT22;720;47.738;7.998;2023-05-16T04:46:41;11.20;99.90
1453;DHT22;720;47.738;7.998;2023-05-16T04:49:07;11.20;99.90
1453;DHT22;720;47.738;7.998;2023-05-16T04:51:34;11.20;99.90
1453;DHT22;720;47.738;7.998;2023-05-16T04:54:00;11.20;99.90
1453;DHT22;720;47.738;7.998;2023-05-16T04:56:25;11.30;99.90
1453;DHT22;720;47.738;7.998;2023-05-16T04:58:51;11.30;99.90
1453;DHT22;720;47.738;7.998;2023-05-16T05:01:17;11.30;99.90
1453;DHT22;720;47.738;7.998;2023-05-16T05:03:43;11.30;99.90
1453;DHT22;720;47.738;7.998;2023-05-16T05:06:08;11.40;99.90
1453;DHT22;720;47.738;7.998;2023-05-16T05:08:34;11.30;99.90
1453;DHT22;720;47.738;7.998;2023-05-16T05:11:00;11.40;99.90
1453;DHT22;720;47.738;7.998;2023-05-16T05:13:25;11.40;99.90
1453;DHT22;720;47.738;7.998;2023-05-16T05:15:51;11.40;99.90
1453;DHT22;720;47.738;7.998;2023-05-16T05:18:17;11.40;99.90
1453;DHT22;720;47.738;7.998;2023-05-16T05:20:43;11.40;99.90
1453;DHT22;720;47.738;7.998;2023-05-16T05:23:09;11.70;99.90
1453;DHT22;720;47.738;7.998;2023-05-16T05:25:38;12.20;99.90
1453;DHT22;720;47.738;7.998;2023-05-16T05:28:03;12.50;99.90
1453;DHT22;720;47.738;7.998;2023-05-16T05:30:29;12.60;99.90
1453;DHT22;720;47.738;7.998;2023-05-16T05:32:55;12.60;99.90
1453;DHT22;720;47.738;7.998;2023-05-16T05:35:20;12.50;99.90
1453;DHT22;720;47.738;7.998;2023-05-16T05:37:46;12.30;99.90
1453;DHT22;720;47.738;7.998;2023-05-16T05:40:12;12.10;99.90
1453;DHT22;720;47.738;7.998;2023-05-16T05:42:38;11.90;99.90
1453;DHT22;720;47.738;7.998;2023-05-16T05:45:04;11.80;99.90
1453;DHT22;720;47.738;7.998;2023-05-16T05:47:30;11.60;99.90
1453;DHT22;720;47.738;7.998;2023-05-16T05:49:56;11.50;99.90
1453;DHT22;720;47.738;7.998;2023-05-16T05:52:22;11.40;99.90
1453;DHT22;720;47.738;7.998;2023-05-16T05:54:47;11.40;99.90
1453;DHT22;720;47.738;7.998;2023-05-16T05:57:13;11.40;99.90
1453;DHT22;720;47.738;7.998;2023-05-16T05:59:39;11.30;99.90
1453;DHT22;720;47.738;7.998;2023-05-16T06:02:05;11.20;99.90
1453;DHT22;720;47.738;7.998;2023-05-16T06:04:31;11.20;99.90
1453;DHT22;720;47.738;7.998;2023-05-16T06:06:57;11.30;99.90
1453;DHT22;720;47.738;7.998;2023-05-16T06:09:22;11.40;99.90
1453;DHT22;720;47.738;7.998;2023-05-16T06:11:49;11.40;99.90
1453;DHT22;720;47.738;7.998;2023-05-16T06:14:14;11.40;99.90
1453;DHT22;720;47.738;7.998;2023-05-16T06:16:40;11.30;99.90
1453;DHT22;720;47.738;7.998;2023-05-16T06:19:06;11.40;99.90
1453;DHT22;720;47.738;7.998;2023-05-16T06:21:32;11.40;99.90
1453;DHT22;720;47.738;7.998;2023-05-16T06:23:58;11.40;99.90
1453;DHT22;720;47.738;7.998;2023-05-16T06:26:24;11.50;99.90
1453;DHT22;720;47.738;7.998;2023-05-16T06:28:50;11.60;99.90
1453;DHT22;720;47.738;7.998;2023-05-16T06:31:15;11.80;99.90
1453;DHT22;720;47.738;7.998;2023-05-16T06:33:41;11.90;99.90
1453;DHT22;720;47.738;7.998;2023-05-16T06:36:07;12.00;99.90
1453;DHT22;720;47.738;7.998;2023-05-16T06:38:32;12.20;99.90
1453;DHT22;720;47.738;7.998;2023-05-16T06:40:58;12.40;99.90
1453;DHT22;720;47.738;7.998;2023-05-16T06:43:23;12.50;99.90
1453;DHT22;720;47.738;7.998;2023-05-16T06:45:49;12.50;99.90
1453;DHT22;720;47.738;7.998;2023-05-16T06:48:17;12.50;99.90
1453;DHT22;720;47.738;7.998;2023-05-16T06:50:46;12.70;99.90
1453;DHT22;720;47.738;7.998;2023-05-16T06:53:11;12.80;99.90
1453;DHT22;720;47.738;7.998;2023-05-16T06:55:37;12.90;99.60
1453;DHT22;720;47.738;7.998;2023-05-16T06:58:03;12.90;99.90
1453;DHT22;720;47.738;7.998;2023-05-16T07:00:29;13.00;99.40
1453;DHT22;720;47.738;7.998;2023-05-16T07:02:54;12.90;99.60
1453;DHT22;720;47.738;7.998;2023-05-16T07:05:20;12.90;99.90
1453;DHT22;720;47.738;7.998;2023-05-16T07:07:46;12.90;99.90
1453;DHT22;720;47.738;7.998;2023-05-16T07:10:13;12.80;99.00
1453;DHT22;720;47.738;7.998;2023-05-16T07:12:41;12.50;99.30
1453;DHT22;720;47.738;7.998;2023-05-16T07:15:07;12.30;99.90
1453;DHT22;720;47.738;7.998;2023-05-16T07:17:33;12.20;99.90
1453;DHT22;720;47.738;7.998;2023-05-16T07:19:59;12.20;99.90
1453;DHT22;720;47.738;7.998;2023-05-16T07:22:25;12.00;99.90
1453;DHT22;720;47.738;7.998;2023-05-16T07:24:50;12.00;99.90
1453;DHT22;720;47.738;7.998;2023-05-16T07:27:18;11.90;99.90
1453;DHT22;720;47.738;7.998;2023-05-16T07:29:44;11.90;99.90
1453;DHT22;720;47.738;7.998;2023-05-16T07:32:10;11.80;99.90
1453;DHT22;720;47.738;7.998;2023-05-16T07:34:36;11.90;99.90
1453;DHT22;720;47.738;7.998;2023-05-16T07:37:01;12.00;99.90
1453;DHT22;720;47.738;7.998;2023-05-16T07:39:27;12.10;99.90
1453;DHT22;720;47.738;7.998;2023-05-16T07:41:53;12.20;99.90
1453;DHT22;720;47.738;7.998;2023-05-16T07:44:19;12.20;99.90
1453;DHT22;720;47.738;7.998;2023-05-16T07:46:44;12.30;99.90
1453;DHT22;720;47.738;7.998;2023-05-16T07:49:10;12.20;99.90
1453;DHT22;720;47.738;7.998;2023-05-16T07:51:36;12.30;99.90
1453;DHT22;720;47.738;7.998;2023-05-16T07:54:02;12.20;99.90
1453;DHT22;720;47.738;7.998;2023-05-16T07:56:27;12.30;99.90
1453;DHT22;720;47.738;7.998;2023-05-16T07:58:54;12.20;99.90
1453;DHT22;720;47.738;7.998;2023-05-16T08:01:19;12.20;99.90
1453;DHT22;720;47.738;7.998;2023-05-16T08:03:45;12.30;99.90
1453;DHT22;720;47.738;7.998;2023-05-16T08:06:11;12.30;99.90
1453;DHT22;720;47.738;7.998;2023-05-16T08:08:36;12.50;99.90
1453;DHT22;720;47.738;7.998;2023-05-16T08:11:02;12.60;99.90
1453;DHT22;720;47.738;7.998;2023-05-16T08:13:29;12.70;99.90
1453;DHT22;720;47.738;7.998;2023-05-16T08:15:56;12.80;99.90
1453;DHT22;720;47.738;7.998;2023-05-16T08:18:21;12.80;99.80
1453;DHT22;720;47.738;7.998;2023-05-16T08:20:47;12.60;98.50
1453;DHT22;720;47.738;7.998;2023-05-16T08:23:13;12.50;99.50
1453;DHT22;720;47.738;7.998;2023-05-16T08:25:39;12.50;99.30
1453;DHT22;720;47.738;7.998;2023-05-16T08:28:04;12.40;99.50
1453;DHT22;720;47.738;7.998;2023-05-16T08:30:30;12.40;99.90
1453;DHT22;720;47.738;7.998;2023-05-16T08:32:56;12.40;99.90
1453;DHT22;720;47.738;7.998;2023-05-16T08:35:22;12.30;99.90
1453;DHT22;720;47.738;7.998;2023-05-16T08:37:47;12.40;99.90
1453;DHT22;720;47.738;7.998;2023-05-16T08:40:13;12.40;99.90
1453;DHT22;720;47.738;7.998;2023-05-16T08:42:40;12.60;99.90
1453;DHT22;720;47.738;7.998;2023-05-16T08:45:06;12.70;99.90
1453;DHT22;720;47.738;7.998;2023-05-16T08:47:32;12.80;99.90
1453;DHT22;720;47.738;7.998;2023-05-16T08:50:02;12.90;99.90
1453;DHT22;720;47.738;7.998;2023-05-16T08:52:30;13.00;99.90
1453;DHT22;720;47.738;7.998;2023-05-16T08:55:01;13.00;99.90
1453;DHT22;720;47.738;7.998;2023-05-16T08:57:31;13.00;99.90
1453;DHT22;720;47.738;7.998;2023-05-16T08:59:59;13.00;99.90
1453;DHT22;720;47.738;7.998;2023-05-16T09:02:29;13.00;99.90
1453;DHT22;720;47.738;7.998;2023-05-16T09:04:55;13.00;99.90
1453;DHT22;720;47.738;7.998;2023-05-16T09:07:23;13.00;99.90
1453;DHT22;720;47.738;7.998;2023-05-16T09:09:49;12.90;99.90
1453;DHT22;720;47.738;7.998;2023-05-16T09:12:15;13.00;99.90
1453;DHT22;720;47.738;7.998;2023-05-16T09:14:41;13.10;99.90
1453;DHT22;720;47.738;7.998;2023-05-16T09:17:08;13.40;99.90
1453;DHT22;720;47.738;7.998;2023-05-16T09:19:41;13.70;99.90
1453;DHT22;720;47.738;7.998;2023-05-16T09:22:14;13.80;98.20
1453;DHT22;720;47.738;7.998;2023-05-16T09:24:45;13.80;98.70
1453;DHT22;720;47.738;7.998;2023-05-16T09:27:14;13.80;99.10
1453;DHT22;720;47.738;7.998;2023-05-16T09:29:44;13.70;98.60
1453;DHT22;720;47.738;7.998;2023-05-16T09:32:15;13.60;98.30
1453;DHT22;720;47.738;7.998;2023-05-16T09:34:45;13.70;98.40
1453;DHT22;720;47.738;7.998;2023-05-16T09:37:14;13.90;98.90
1453;DHT22;720;47.738;7.998;2023-05-16T09:39:48;14.40;99.50
1453;DHT22;720;47.738;7.998;2023-05-16T09:42:15;14.80;98.80
1453;DHT22;720;47.738;7.998;2023-05-16T09:44:44;15.10;96.80
1453;DHT22;720;47.738;7.998;2023-05-16T09:47:14;15.30;95.90
1453;DHT22;720;47.738;7.998;2023-05-16T09:49:40;15.40;95.30
1453;DHT22;720;47.738;7.998;2023-05-16T09:52:06;15.40;95.60
1453;DHT22;720;47.738;7.998;2023-05-16T09:54:32;15.30;94.40
1453;DHT22;720;47.738;7.998;2023-05-16T09:56:59;15.30;94.60
1453;DHT22;720;47.738;7.998;2023-05-16T09:59:27;15.30;93.90
1453;DHT22;720;47.738;7.998;2023-05-16T10:01:53;15.50;94.60
1453;DHT22;720;47.738;7.998;2023-05-16T10:04:21;15.90;92.70
1453;DHT22;720;47.738;7.998;2023-05-16T10:06:49;16.30;92.90
1453;DHT22;720;47.738;7.998;2023-05-16T10:09:17;17.00;92.40
1453;DHT22;720;47.738;7.998;2023-05-16T10:11:44;17.90;89.40
1453;DHT22;720;47.738;7.998;2023-05-16T10:14:11;18.30;83.70
1453;DHT22;720;47.738;7.998;2023-05-16T10:16:41;18.10;83.40
1453;DHT22;720;47.738;7.998;2023-05-16T10:19:07;17.70;83.00
1453;DHT22;720;47.738;7.998;2023-05-16T10:21:34;17.10;82.30
1453;DHT22;720;47.738;7.998;2023-05-16T10:24:03;16.70;87.40
1453;DHT22;720;47.738;7.998;2023-05-16T10:26:31;16.50;87.90
1453;DHT22;720;47.738;7.998;2023-05-16T10:28:59;16.50;85.40
1453;DHT22;720;47.738;7.998;2023-05-16T10:31:25;16.40;86.90
1453;DHT22;720;47.738;7.998;2023-05-16T10:33:51;16.40;89.60
1453;DHT22;720;47.738;7.998;2023-05-16T10:36:17;16.40;87.10
1453;DHT22;720;47.738;7.998;2023-05-16T10:38:44;16.30;86.00
1453;DHT22;720;47.738;7.998;2023-05-16T10:41:11;16.20;87.00
1453;DHT22;720;47.738;7.998;2023-05-16T10:43:38;16.10;87.70
1453;DHT22;720;47.738;7.998;2023-05-16T10:46:06;16.10;85.20
1453;DHT22;720;47.738;7.998;2023-05-16T10:48:37;16.00;86.20
1453;DHT22;720;47.738;7.998;2023-05-16T10:54:08;16.10;84.80
1453;DHT22;720;47.738;7.998;2023-05-16T10:56:35;15.50;87.60
1453;DHT22;720;47.738;7.998;2023-05-16T10:59:01;15.20;87.50
1453;DHT22;720;47.738;7.998;2023-05-16T11:01:29;14.90;88.50
1453;DHT22;720;47.738;7.998;2023-05-16T11:06:50;14.60;91.10
1453;DHT22;720;47.738;7.998;2023-05-16T11:11:59;15.50;91.90
1453;DHT22;720;47.738;7.998;2023-05-16T11:17:07;16.60;90.00
1453;DHT22;720;47.738;7.998;2023-05-16T11:19:51;16.80;90.00
1453;DHT22;720;47.738;7.998;2023-05-16T11:22:23;16.70;85.90
1453;DHT22;720;47.738;7.998;2023-05-16T11:24:53;16.60;88.80
1453;DHT22;720;47.738;7.998;2023-05-16T11:27:44;16.40;89.30
1453;DHT22;720;47.738;7.998;2023-05-16T11:30:14;16.20;87.40
1453;DHT22;720;47.738;7.998;2023-05-16T11:32:43;15.60;86.90
1453;DHT22;720;47.738;7.998;2023-05-16T11:35:15;15.50;88.00
1453;DHT22;720;47.738;7.998;2023-05-16T11:37:42;15.40;88.80
1453;DHT22;720;47.738;7.998;2023-05-16T11:40:10;15.10;90.00
1453;DHT22;720;47.738;7.998;2023-05-16T11:42:41;15.30;90.10
1453;DHT22;720;47.738;7.998;2023-05-16T11:45:09;15.50;88.50
1453;DHT22;720;47.738;7.998;2023-05-16T11:47:37;15.70;89.50
1453;DHT22;720;47.738;7.998;2023-05-16T11:50:06;15.90;89.00
1453;DHT22;720;47.738;7.998;2023-05-16T11:52:34;16.20;86.30
1453;DHT22;720;47.738;7.998;2023-05-16T11:55:00;16.40;85.40
1453;DHT22;720;47.738;7.998;2023-05-16T11:57:26;16.40;86.20
1453;DHT22;720;47.738;7.998;2023-05-16T11:59:52;16.60;89.60
1453;DHT22;720;47.738;7.998;2023-05-16T12:02:20;16.60;85.70
1453;DHT22;720;47.738;7.998;2023-05-16T12:04:46;16.30;82.70
1453;DHT22;720;47.738;7.998;2023-05-16T12:07:14;16.10;84.60
1453;DHT22;720;47.738;7.998;2023-05-16T12:09:40;16.00;86.50
1453;DHT22;720;47.738;7.998;2023-05-16T12:12:06;15.70;86.80
1453;DHT22;720;47.738;7.998;2023-05-16T12:14:33;15.50;87.30
1453;DHT22;720;47.738;7.998;2023-05-16T12:16:59;15.50;88.30
1453;DHT22;720;47.738;7.998;2023-05-16T12:19:25;15.80;88.50
1453;DHT22;720;47.738;7.998;2023-05-16T12:21:52;16.00;87.70
1453;DHT22;720;47.738;7.998;2023-05-16T12:24:18;16.00;88.90
1453;DHT22;720;47.738;7.998;2023-05-16T12:26:45;15.60;84.70
1453;DHT22;720;47.738;7.998;2023-05-16T12:29:11;15.30;88.90
1453;DHT22;720;47.738;7.998;2023-05-16T12:31:39;15.10;89.00
1453;DHT22;720;47.738;7.998;2023-05-16T12:34:18;15.00;88.10
1453;DHT22;720;47.738;7.998;2023-05-16T12:36:51;14.50;88.30
1453;DHT22;720;47.738;7.998;2023-05-16T12:39:18;14.40;90.10
1453;DHT22;720;47.738;7.998;2023-05-16T12:41:45;14.30;89.10
1453;DHT22;720;47.738;7.998;2023-05-16T12:44:16;14.50;89.40
1453;DHT22;720;47.738;7.998;2023-05-16T12:46:47;14.70;87.80
1453;DHT22;720;47.738;7.998;2023-05-16T12:49:14;14.70;88.30
1453;DHT22;720;47.738;7.998;2023-05-16T12:51:46;14.90;88.20
1453;DHT22;720;47.738;7.998;2023-05-16T12:54:13;15.00;88.10
1453;DHT22;720;47.738;7.998;2023-05-16T12:56:40;15.20;89.50
1453;DHT22;720;47.738;7.998;2023-05-16T12:59:06;15.50;90.70
1453;DHT22;720;47.738;7.998;2023-05-16T13:01:34;15.60;90.20
1453;DHT22;720;47.738;7.998;2023-05-16T13:04:00;15.70;89.70
1453;DHT22;720;47.738;7.998;2023-05-16T13:06:26;15.80;89.00
1453;DHT22;720;47.738;7.998;2023-05-16T13:08:52;15.80;87.40
1453;DHT22;720;47.738;7.998;2023-05-16T13:11:18;15.80;88.10
1453;DHT22;720;47.738;7.998;2023-05-16T13:13:44;16.00;88.90
1453;DHT22;720;47.738;7.998;2023-05-16T13:16:10;16.20;89.00
1453;DHT22;720;47.738;7.998;2023-05-16T13:18:36;16.40;87.80
1453;DHT22;720;47.738;7.998;2023-05-16T13:21:02;16.40;88.70
1453;DHT22;720;47.738;7.998;2023-05-16T13:23:31;15.90;82.60
1453;DHT22;720;47.738;7.998;2023-05-16T13:25:57;15.60;85.20
1453;DHT22;720;47.738;7.998;2023-05-16T13:28:23;15.40;87.20
1453;DHT22;720;47.738;7.998;2023-05-16T13:30:49;15.10;86.40
1453;DHT22;720;47.738;7.998;2023-05-16T13:33:15;15.30;86.90
1453;DHT22;720;47.738;7.998;2023-05-16T13:35:42;15.40;87.70
1453;DHT22;720;47.738;7.998;2023-05-16T13:38:08;15.40;86.30
1453;DHT22;720;47.738;7.998;2023-05-16T13:40:34;15.40;84.90
1453;DHT22;720;47.738;7.998;2023-05-16T13:43:01;15.50;87.70
1453;DHT22;720;47.738;7.998;2023-05-16T13:45:27;15.70;88.20
1453;DHT22;720;47.738;7.998;2023-05-16T13:47:53;15.90;87.30
1453;DHT22;720;47.738;7.998;2023-05-16T13:50:19;15.90;86.00
1453;DHT22;720;47.738;7.998;2023-05-16T13:52:45;16.00;87.70
1453;DHT22;720;47.738;7.998;2023-05-16T13:55:12;15.90;87.60
1453;DHT22;720;47.738;7.998;2023-05-16T13:57:38;16.00;88.80
1453;DHT22;720;47.738;7.998;2023-05-16T14:00:05;15.80;88.60
1453;DHT22;720;47.738;7.998;2023-05-16T14:02:38;15.80;90.00
1453;DHT22;720;47.738;7.998;2023-05-16T14:05:04;15.60;90.10
1453;DHT22;720;47.738;7.998;2023-05-16T14:07:30;15.60;90.00
1453;DHT22;720;47.738;7.998;2023-05-16T14:09:55;15.50;87.00
1453;DHT22;720;47.738;7.998;2023-05-16T14:12:21;15.40;87.40
1453;DHT22;720;47.738;7.998;2023-05-16T14:14:46;15.30;89.00
1453;DHT22;720;47.738;7.998;2023-05-16T14:17:12;15.20;90.30
1453;DHT22;720;47.738;7.998;2023-05-16T14:19:38;14.90;86.90
1453;DHT22;720;47.738;7.998;2023-05-16T14:22:03;14.40;87.60
1453;DHT22;720;47.738;7.998;2023-05-16T14:24:29;14.50;90.30
1453;DHT22;720;47.738;7.998;2023-05-16T14:26:56;14.90;91.20
1453;DHT22;720;47.738;7.998;2023-05-16T14:29:21;14.90;89.70
1453;DHT22;720;47.738;7.998;2023-05-16T14:31:47;15.00;88.90
1453;DHT22;720;47.738;7.998;2023-05-16T14:34:13;15.10;90.40
1453;DHT22;720;47.738;7.998;2023-05-16T14:36:38;15.00;88.90
1453;DHT22;720;47.738;7.998;2023-05-16T14:39:04;14.90;90.30
1453;DHT22;720;47.738;7.998;2023-05-16T14:41:29;15.00;90.80
1453;DHT22;720;47.738;7.998;2023-05-16T14:43:55;15.00;90.80
1453;DHT22;720;47.738;7.998;2023-05-16T14:46:21;14.70;90.60
1453;DHT22;720;47.738;7.998;2023-05-16T14:48:46;14.50;91.00
1453;DHT22;720;47.738;7.998;2023-05-16T14:51:12;14.30;91.40
1453;DHT22;720;47.738;7.998;2023-05-16T14:53:38;14.10;91.60
1453;DHT22;720;47.738;7.998;2023-05-16T14:56:03;13.80;92.10
1453;DHT22;720;47.738;7.998;2023-05-16T14:58:29;13.60;92.90
1453;DHT22;720;47.738;7.998;2023-05-16T15:00:55;13.40;93.40
1453;DHT22;720;47.738;7.998;2023-05-16T15:03:21;13.20;92.80
1453;DHT22;720;47.738;7.998;2023-05-16T15:05:47;13.10;93.40
1453;DHT22;720;47.738;7.998;2023-05-16T15:08:12;13.00;93.60
1453;DHT22;720;47.738;7.998;2023-05-16T15:10:38;13.00;93.30
1453;DHT22;720;47.738;7.998;2023-05-16T15:13:04;13.00;93.70
1453;DHT22;720;47.738;7.998;2023-05-16T15:15:31;12.90;94.40
1453;DHT22;720;47.738;7.998;2023-05-16T15:17:57;12.80;94.50
1453;DHT22;720;47.738;7.998;2023-05-16T15:20:23;12.80;94.60
1453;DHT22;720;47.738;7.998;2023-05-16T15:22:50;12.70;94.40
1453;DHT22;720;47.738;7.998;2023-05-16T15:25:16;12.70;94.60
1453;DHT22;720;47.738;7.998;2023-05-16T15:27:42;12.80;94.90
1453;DHT22;720;47.738;7.998;2023-05-16T15:30:08;12.80;94.90
1453;DHT22;720;47.738;7.998;2023-05-16T15:32:35;12.90;94.70
1453;DHT22;720;47.738;7.998;2023-05-16T15:35:00;12.90;94.00
1453;DHT22;720;47.738;7.998;2023-05-16T15:37:26;12.90;94.40
1453;DHT22;720;47.738;7.998;2023-05-16T15:39:52;12.90;93.30
1453;DHT22;720;47.738;7.998;2023-05-16T15:42:17;12.90;93.50
1453;DHT22;720;47.738;7.998;2023-05-16T15:44:44;12.90;93.70
1453;DHT22;720;47.738;7.998;2023-05-16T15:47:10;13.00;94.20
1453;DHT22;720;47.738;7.998;2023-05-16T15:49:36;13.00;94.00
1453;DHT22;720;47.738;7.998;2023-05-16T15:52:01;12.80;93.90
1453;DHT22;720;47.738;7.998;2023-05-16T15:54:27;12.80;93.80
1453;DHT22;720;47.738;7.998;2023-05-16T15:56:54;12.70;94.80
1453;DHT22;720;47.738;7.998;2023-05-16T15:59:19;12.60;93.70
1453;DHT22;720;47.738;7.998;2023-05-16T16:01:45;12.50;94.40
1453;DHT22;720;47.738;7.998;2023-05-16T16:04:10;12.40;94.60
1453;DHT22;720;47.738;7.998;2023-05-16T16:06:36;12.40;94.90
1453;DHT22;720;47.738;7.998;2023-05-16T16:09:02;12.30;95.30
1453;DHT22;720;47.738;7.998;2023-05-16T16:11:28;12.50;95.50
1453;DHT22;720;47.738;7.998;2023-05-16T16:13:54;12.60;94.50
1453;DHT22;720;47.738;7.998;2023-05-16T16:16:19;12.50;94.50
1453;DHT22;720;47.738;7.998;2023-05-16T16:18:45;12.60;95.20
1453;DHT22;720;47.738;7.998;2023-05-16T16:21:11;12.50;95.10
1453;DHT22;720;47.738;7.998;2023-05-16T16:23:37;12.50;94.30
1453;DHT22;720;47.738;7.998;2023-05-16T16:26:04;12.40;95.00
1453;DHT22;720;47.738;7.998;2023-05-16T16:28:30;12.40;95.50
1453;DHT22;720;47.738;7.998;2023-05-16T16:30:56;12.40;94.60
1453;DHT22;720;47.738;7.998;2023-05-16T16:33:22;12.30;95.30
1453;DHT22;720;47.738;7.998;2023-05-16T16:35:47;12.30;94.80